Latest Weather Observations for Warruwi

IDD60801

Issued at 6:01 am CST Thursday 16 August 2018 (issued every 10 minutes, with the page automatically refreshed every 10 minutes)

About weather observations | Map of weather stations | Latest weather observations for NT | Other Formats
Station Details ID: 014401 Name: WARRUWI AIRPORT Lat: -11.65 Lon: 133.38 Height: 19.2 m
Data from the previous 72 hours. | See also: Recent months at Warruwi
Date/Time
CST
Temp
°C
App
Temp
°C
Dew
Point
°C
Rel
Hum
%
Delta-T
°C
Wind Press
QNH
hPa
Press
MSL
hPa
Rain since
9am
mm
Dir  Spd
km/h
Gust
km/h
Spd
kts
Gust
kts
16/06:00am 22.3 22.6 17.9 76 2.7 ESE 13 24 7 13 1013.2 1013.1 0.0
16/05:30am 22.4 22.2 17.5 74 3.0 ESE 15 17 8 9 1013.2 1013.1 0.0
16/05:00am 22.7 22.6 17.8 74 3.0 ESE 15 22 8 12 1012.9 1012.8 0.0
16/04:30am 23.0 22.9 17.9 73 3.2 SE 15 24 8 13 1013.0 1012.9 0.0
16/04:00am 23.3 23.3 18.2 73 3.2 ESE 15 22 8 12 1013.2 1013.1 0.0
16/03:30am 23.5 22.9 17.5 69 3.7 ESE 17 20 9 11 1013.3 1013.2 0.0
16/03:00am 23.8 22.8 17.5 68 3.9 ESE 19 28 10 15 1013.5 1013.4 0.0
16/02:30am 24.5 23.6 17.7 66 4.3 ESE 19 26 10 14 1013.6 1013.5 0.0
16/02:00am 25.1 25.4 19.7 72 3.5 E 17 28 9 15 1013.8 1013.7 0.0
16/01:30am 25.0 24.9 20.0 74 3.2 E 20 32 11 17 1013.8 1013.7 0.0
16/01:00am 25.3 25.5 20.5 75 3.1 E 20 30 11 16 1014.1 1014.0 0.0
16/12:30am 25.2 25.9 20.5 75 3.1 E 17 30 9 16 1014.2 1014.1 0.0
16/12:00am 25.0 26.7 20.9 78 2.7 ENE 13 24 7 13 1014.3 1014.2 0.0
 
Date/Time
CST
Temp
°C
App
Temp
°C
Dew
Point
°C
Rel
Hum
%
Delta-T
°C
Wind Press
QNH
hPa
Press
MSL
hPa
Rain since
9am
mm
Dir  Spd
km/h
Gust
km/h
Spd
kts
Gust
kts
15/11:30pm 25.0 27.1 20.9 78 2.7 ENE 11 19 6 10 1014.5 1014.4 0.0
15/11:00pm 25.1 27.8 21.4 80 2.4 ENE 9 20 5 11 1014.5 1014.4 0.0
15/10:30pm 25.1 27.2 21.0 78 2.7 ENE 11 20 6 11 1014.3 1014.2 0.0
15/10:00pm 25.0 27.2 20.3 75 3.1 ENE 9 17 5 9 1014.3 1014.2 0.0
15/09:30pm 24.9 27.4 20.2 75 3.1 ENE 7 15 4 8 1014.1 1014.0 0.0
15/09:00pm 25.0 27.3 19.8 73 3.4 ENE 7 13 4 7 1014.1 1014.0 0.0
15/08:30pm 25.0 27.2 19.1 70 3.8 NE 6 11 3 6 1013.9 1013.8 0.0
15/08:00pm 25.2 27.4 19.1 69 3.9 NE 6 11 3 6 1013.5 1013.4 0.0
15/07:30pm 25.4 27.3 18.6 66 4.3 NE 6 9 3 5 1013.1 1013.0 0.0
15/07:00pm 25.8 27.5 18.0 62 4.9 NE 6 13 3 7 1012.8 1012.7 0.0
15/06:30pm 25.9 27.1 17.3 59 5.4 ENE 7 11 4 6 1012.5 1012.4 0.0
15/06:00pm 26.4 26.9 16.6 55 6.1 ENE 9 17 5 9 1012.3 1012.2 0.0
15/05:30pm 27.2 27.0 15.6 49 7.1 ENE 11 22 6 12 1012.3 1012.2 0.0
15/05:00pm 27.2 26.2 14.6 46 7.6 ENE 13 28 7 15 1012.4 1012.3 0.0
15/04:30pm 28.4 26.7 13.5 40 8.9 ENE 15 24 8 13 1012.5 1012.4 0.0
15/04:00pm 28.2 27.0 15.1 44 8.0 ENE 15 28 8 15 1012.6 1012.5 0.0
15/03:30pm 27.8 26.1 14.8 45 7.9 E 17 24 9 13 1012.8 1012.7 0.0
15/03:00pm 27.7 26.4 14.7 45 7.8 ENE 15 22 8 12 1013.1 1013.0 0.0
15/02:30pm 27.9 25.8 15.2 46 7.7 E 20 28 11 15 1013.3 1013.2 0.0
15/02:00pm 28.1 26.4 15.7 46 7.6 E 19 28 10 15 1013.6 1013.5 0.0
15/01:30pm 27.5 27.1 17.1 53 6.5 E 15 22 8 12 1013.9 1013.8 0.0
15/01:00pm 26.5 26.0 17.8 58 5.5 E 17 28 9 15 1014.3 1014.2 0.0
15/12:30pm 26.4 25.6 18.0 60 5.3 E 19 28 10 15 1014.7 1014.6 0.0
15/12:00pm 26.7 27.0 19.6 65 4.6 E 17 26 9 14 1015.1 1015.0 0.0
15/11:30am 25.9 25.6 19.1 66 4.4 E 19 28 10 15 1015.6 1015.5 0.0
15/11:00am 25.5 24.9 18.4 65 4.5 E 19 28 10 15 1016.0 1015.9 0.0
15/10:30am 25.9 25.0 19.1 66 4.4 E 22 30 12 16 1016.4 1016.3 0.0
15/10:00am 25.3 24.8 18.7 67 4.2 ESE 19 28 10 15 1016.7 1016.6 0.0
15/09:30am 24.9 24.5 18.8 69 3.9 ESE 19 24 10 13 1016.9 1016.8 0.0
15/09:00am 24.3 24.6 18.7 71 3.5 ESE 15 22 8 12 1016.6 1016.5 0.0
15/08:30am 23.7 23.2 18.6 73 3.2 ESE 19 26 10 14 1016.3 1016.2 0.0
15/08:00am 23.1 23.2 18.4 75 3.0 SE 15 19 8 10 1016.1 1016.0 0.0
15/07:30am 22.2 22.4 18.6 80 2.3 ESE 15 22 8 12 1015.9 1015.8 0.0
15/07:00am 21.9 22.4 18.3 80 2.3 ESE 13 20 7 11 1015.7 1015.6 0.0
15/06:30am 21.9 22.3 18.1 79 2.4 ESE 13 19 7 10 1015.5 1015.4 0.0
15/06:00am 22.1 21.7 18.1 78 2.5 ESE 17 24 9 13 1015.2 1015.1 0.0
15/05:30am 22.0 21.4 17.6 76 2.7 ESE 17 24 9 13 1015.1 1015.0 0.0
15/05:00am 22.2 21.5 17.3 74 3.0 ESE 17 24 9 13 1015.2 1015.1 0.0
15/04:30am 22.2 21.2 17.6 75 2.8 SE 19 26 10 14 1015.2 1015.1 0.0
15/04:00am 22.2 21.0 17.1 73 3.1 SE 19 28 10 15 1015.2 1015.1 0.0
15/03:30am 22.4 21.1 16.9 71 3.4 SE 19 26 10 14 1015.3 1015.2 0.0
15/03:00am 22.6 21.5 16.4 68 3.8 SE 17 28 9 15 1015.3 1015.2 0.0
15/02:30am 22.8 21.5 15.9 65 4.2 SE 17 28 9 15 1015.3 1015.2 0.0
15/02:00am 23.1 21.6 15.4 62 4.6 ESE 17 24 9 13 1015.5 1015.4 0.0
15/01:30am 23.5 21.6 15.3 60 4.9 SE 19 28 10 15 1015.4 1015.3 0.0
15/01:00am 24.2 22.2 15.4 58 5.3 ESE 20 30 11 16 1015.6 1015.5 0.0
15/12:30am 24.7 23.2 16.2 59 5.2 ESE 19 26 10 14 1015.8 1015.7 0.0
15/12:00am 25.4 24.0 17.1 60 5.2 ESE 20 30 11 16 1015.6 1015.5 0.0
 
Date/Time
CST
Temp
°C
App
Temp
°C
Dew
Point
°C
Rel
Hum
%
Delta-T
°C
Wind Press
QNH
hPa
Press
MSL
hPa
Rain since
9am
mm
Dir  Spd
km/h
Gust
km/h
Spd
kts
Gust
kts
14/11:30pm 25.5 25.3 19.4 69 3.9 E 19 30 10 16 1015.6 1015.5 0.0
14/11:00pm 25.4 25.8 19.8 71 3.6 E 17 24 9 13 1015.5 1015.4 0.0
14/10:30pm 25.4 26.4 20.2 73 3.4 E 15 20 8 11 1015.5 1015.4 0.0
14/10:00pm 25.3 26.5 19.9 72 3.5 E 13 19 7 10 1015.3 1015.2 0.0
14/09:30pm 25.4 26.6 20.0 72 3.5 E 13 19 7 10 1015.4 1015.3 0.0
14/09:00pm 25.2 26.6 19.6 71 3.6 E 11 17 6 9 1015.5 1015.4 0.0
14/08:30pm 24.8 27.0 19.2 71 3.6 ENE 6 13 3 7 1015.3 1015.2 0.0
14/08:00pm 24.7 26.4 18.4 68 4.0 ENE 7 11 4 6 1015.0 1014.9 0.0
14/07:30pm 24.8 26.3 18.0 66 4.3 ENE 7 13 4 7 1014.7 1014.6 0.0
14/07:00pm 24.9 26.2 17.6 64 4.6 ENE 7 11 4 6 1014.3 1014.2 0.0
14/06:30pm 25.3 25.9 16.7 59 5.3 ENE 9 15 5 8 1013.9 1013.8 0.0
14/06:00pm 26.1 27.2 17.2 58 5.6 ENE 7 15 4 8 1013.7 1013.6 0.0
14/05:30pm 27.1 27.0 16.1 51 6.8 ENE 11 17 6 9 1013.4 1013.3 0.0
14/05:00pm 27.2 26.7 15.9 50 6.9 ENE 13 20 7 11 1013.3 1013.2 0.0
14/04:30pm 27.6 27.5 15.9 49 7.2 ENE 11 17 6 9 1013.3 1013.2 0.0
14/04:00pm 27.7 27.2 16.0 49 7.2 E 13 20 7 11 1013.5 1013.4 0.0
14/03:30pm 27.6 26.3 15.9 49 7.2 E 17 22 9 12 1013.7 1013.6 0.0
14/03:00pm 27.4 25.6 15.4 48 7.3 E 19 28 10 15 1013.9 1013.8 0.0
14/02:30pm 27.2 25.4 15.6 49 7.1 E 19 30 10 16 1014.3 1014.2 0.0
14/02:00pm 26.8 25.4 15.5 50 6.9 E 17 26 9 14 1014.8 1014.7 0.0
14/01:30pm 27.7 25.2 13.6 42 8.4 E 19 30 10 16 1015.1 1015.0 0.0
14/01:00pm 27.4 23.9 13.4 42 8.3 E 24 33 13 18 1015.7 1015.6 0.0
14/12:30pm 27.5 24.7 14.2 44 7.9 E 22 32 12 17 1016.4 1016.3 0.0
14/12:00pm 26.3 22.7 14.1 47 7.2 E 26 37 14 20 1017.0 1016.9 0.0
14/11:30am 26.3 22.6 13.8 46 7.4 E 26 41 14 22 1017.4 1017.3 0.0
14/11:00am 27.4 24.0 12.6 40 8.6 ESE 22 33 12 18 1017.7 1017.6 0.0
14/10:30am 26.6 23.3 11.5 39 8.6 ESE 20 32 11 17 1017.8 1017.7 0.0
14/10:00am 25.8 22.6 11.9 42 8.0 SE 20 33 11 18 1018.1 1018.0 0.0
14/09:30am 24.1 21.2 12.4 48 6.7 SE 19 28 10 15 1018.3 1018.2 0.0
14/09:00am 23.4 20.5 12.4 50 6.3 SE 19 26 10 14 1018.4 1018.3 0.0
14/08:30am 22.4 19.2 11.8 51 5.9 SE 20 30 11 16 1018.2 1018.1 0.0
14/08:00am 22.3 18.9 11.4 50 6.1 ESE 20 33 11 18 1018.2 1018.1 0.0
14/07:30am 21.8 18.5 10.9 50 6.0 ESE 19 30 10 16 1017.9 1017.8 0.0
14/07:00am 21.5 17.8 10.0 48 6.2 ESE 20 30 11 16 1017.6 1017.5 0.0
14/06:30am 21.4 17.1 9.3 46 6.5 SE 22 32 12 17 1017.3 1017.2 0.0
14/06:00am 21.5 17.9 10.6 50 6.0 ESE 20 30 11 16 1017.1 1017.0 0.0
14/05:30am 21.6 18.2 10.4 49 6.1 ESE 19 30 10 16 1017.0 1016.9 0.0
14/05:00am 21.8 17.0 9.0 44 6.8 ESE 24 33 13 18 1016.9 1016.8 0.0
14/04:30am 22.1 18.0 8.6 42 7.1 ESE 20 32 11 17 1016.7 1016.6 0.0
14/04:00am 22.2 18.4 7.6 39 7.6 ESE 17 24 9 13 1016.7 1016.6 0.0
14/03:30am 22.2 17.9 7.2 38 7.7 SE 19 30 10 16 1016.7 1016.6 0.0
14/03:00am 22.4 18.6 7.4 38 7.8 SE 17 24 9 13 1016.7 1016.6 0.0
14/02:30am 22.6 18.3 8.0 39 7.7 SE 20 30 11 16 1016.8 1016.7 0.0
14/02:00am 23.0 18.7 9.4 42 7.3 SE 22 35 12 19 1017.1 1017.0 0.0
14/01:30am 23.1 20.4 10.5 45 6.9 SE 15 22 8 12 1017.1 1017.0 0.0
14/01:00am 23.4 20.2 11.1 46 6.9 SE 19 30 10 16 1017.4 1017.3 0.0
14/12:30am 23.7 20.8 11.1 45 7.0 SE 17 26 9 14 1017.6 1017.5 0.0
14/12:00am 23.9 21.5 12.5 49 6.5 SE 17 26 9 14 1017.7 1017.6 0.0
 
Date/Time
CST
Temp
°C
App
Temp
°C
Dew
Point
°C
Rel
Hum
%
Delta-T
°C
Wind Press
QNH
hPa
Press
MSL
hPa
Rain since
9am
mm
Dir  Spd
km/h
Gust
km/h
Spd
kts
Gust
kts
13/11:30pm 24.2 21.2 12.5 48 6.7 SE 20 33 11 18 1017.7 1017.6 0.0
13/11:00pm 24.7 21.2 12.3 46 7.1 ESE 22 35 12 19 1017.6 1017.5 0.0
13/10:30pm 25.1 21.4 12.7 46 7.2 ESE 24 39 13 21 1017.5 1017.4 0.0
13/10:00pm 25.5 22.8 13.4 47 7.1 ESE 20 32 11 17 1017.3 1017.2 0.0
13/09:30pm 26.0 23.6 13.8 47 7.2 ESE 19 30 10 16 1017.1 1017.0 0.0
13/09:00pm 26.0 24.8 14.1 47 7.1 ESE 13 22 7 12 1016.8 1016.7 0.0
13/08:30pm 25.5 25.9 15.2 53 6.2 ESE 7 9 4 5 1016.5 1016.4 0.0
13/08:00pm 25.3 26.8 16.7 59 5.3 E 4 6 2 3 1016.3 1016.2 0.0
13/07:30pm 26.0 27.2 17.4 59 5.4 E 7 11 4 6 1015.8 1015.7 0.0
13/07:00pm 26.3 26.3 17.1 57 5.7 ESE 13 19 7 10 1015.3 1015.2 0.0
13/06:30pm 26.4 26.7 18.0 60 5.3 ESE 13 20 7 11 1015.0 1014.9 0.0
13/06:00pm 26.8 27.0 17.6 57 5.8 E 13 19 7 10 1014.6 1014.5 0.0
13/05:30pm 27.1 26.4 16.4 52 6.6 E 15 22 8 12 1014.3 1014.2 0.0
13/05:00pm 27.5 26.5 16.5 51 6.8 E 17 22 9 12 1014.2 1014.1 0.0
13/04:30pm 27.5 25.8 15.8 48 7.2 E 19 24 10 13 1014.1 1014.0 0.0
13/04:00pm 27.6 26.2 15.6 48 7.3 E 17 26 9 14 1014.1 1014.0 0.0
13/03:30pm 27.4 25.5 15.7 48 7.2 E 20 26 11 14 1014.2 1014.1 0.0
13/03:00pm 27.9 25.3 13.8 42 8.4 E 20 30 11 16 1014.5 1014.4 0.0
13/02:30pm 28.4 25.4 12.7 38 9.2 E 20 30 11 16 1015.0 1014.9 0.0
13/02:00pm 28.4 25.2 11.9 36 9.6 E 20 28 11 15 1015.3 1015.2 0.0
13/01:30pm 28.4 24.4 10.6 33 10.1 E 22 32 12 17 1015.7 1015.6 0.0
13/01:00pm 28.6 25.1 10.3 32 10.3 ESE 19 26 10 14 1016.1 1016.0 0.0
13/12:30pm 28.1 24.5 9.9 32 10.2 ESE 19 26 10 14 1016.5 1016.4 0.0
13/12:00pm 27.7 23.6 10.0 33 9.9 ESE 22 30 12 16 1016.8 1016.7 0.0
13/11:30am 27.1 22.6 9.9 34 9.6 ESE 24 35 13 19 1017.2 1017.1 0.0
13/11:00am 26.4 22.4 10.5 37 8.9 SE 22 33 12 18 1017.5 1017.4 0.0
13/10:30am 26.3 22.7 12.0 41 8.2 SE 22 33 12 18 1017.8 1017.7 0.0
13/10:00am 25.1 21.4 12.7 46 7.2 SE 24 35 13 19 1017.8 1017.7 0.0
13/09:30am 24.8 21.5 14.0 51 6.4 SE 24 37 13 20 1017.9 1017.8 0.0
13/09:00am 24.1 21.7 14.5 55 5.7 SE 20 35 11 19 1017.8 1017.7 0.0
13/08:30am 22.9 20.3 13.9 57 5.2 SE 20 33 11 18 1017.8 1017.7 0.0
13/08:00am 22.5 20.6 14.1 59 4.9 SE 17 28 9 15 1017.7 1017.6 0.0
13/07:30am 21.9 19.1 14.3 62 4.4 SE 22 35 12 19 1017.4 1017.3 0.0
13/07:00am 21.6 18.4 14.3 63 4.3 ESE 24 37 13 20 1017.1 1017.0 0.0
13/06:30am 21.7 18.9 14.4 63 4.3 ESE 22 32 12 17 1016.8 1016.7 0.0

Other Formats:

Comma delimited format used in spreadsheet applications
http://www.bom.gov.au/fwo/IDD60801/IDD60801.94139.axf

JavaScript Object Notation format (JSON) in row-major order
http://www.bom.gov.au/fwo/IDD60801/IDD60801.94139.json